ADDS METAR Data INFO
IDs: Format: Raw Decoded Include TAF

Data at: 1010 UTC 14 Dec 2017

KHYI 140956Z AUTO 00000KT 10SM FEW120 04/02 A2993 RMK AO2 SLP135 T00440022 $
KHYI 140856Z AUTO 00000KT 10SM CLR 05/03 A2994 RMK AO2 SLP135 T00500028 56009 $
KHYI 140756Z AUTO 00000KT 10SM CLR 04/02 A2994 RMK AO2 SLP137 T00440022 $
KHYI 140656Z AUTO 00000KT 10SM CLR 06/03 A2996 RMK AO2 SLP142 T00610028 $
KHYI 140556Z AUTO 00000KT 10SM CLR 07/03 A2997 RMK AO2 SLP145 T00720028 10111 20056 401611006 56005 $
KHYI 140356Z AUTO 19004KT 10SM CLR 08/02 A2997 RMK AO2 SLP147 T00830022 $
KHYI 140256Z AUTO 18004KT 10SM CLR 09/02 A2998 RMK AO2 SLP151 T00890022 58003 $
KHYI 140156Z AUTO 22005KT 10SM CLR 08/02 A2999 RMK AO2 SLP154 T00830022 $
KHYI 140056Z AUTO 19004KT 10SM CLR 11/02 A3000 RMK AO2 SLP157 T01060022 $
KHYI 132356Z 18006KT 10SM CLR 11/02 A2999 RMK AO2 SLP156 T01110022 10161 20111 58016 $
KHYI 132156Z 21010KT 10SM CLR 15/01 A3003 RMK AO2 SLP168 T01500011 $
KHYI 132056Z 22011KT 10SM CLR 16/01 A3004 RMK AO2 SLP170 T01610006 56037 $
KHYI 131956Z 22012KT 10SM CLR 16/01 A3007 RMK AO2 SLP178 T01610006 $
KHYI 131856Z 21011KT 10SM CLR 14/01 A3011 RMK AO2 SLP193 T01440006 $
KHYI 131756Z 22010KT 10SM CLR 13/01 A3015 RMK AO2 SLP208 T01330011 10133 20000 58018 $
KHYI 131656Z 23008KT 10SM CLR 11/01 A3018 RMK AO2 SLP217 T01060011 $
KHYI 131556Z 21003KT 10SM CLR 07/03 A3020 RMK AO2 SLP225 T00720033 $
KHYI 131456Z 25003KT 10SM CLR 04/02 A3021 RMK AO2 SLP230 T00440017 52009 $
KHYI 131356Z 00000KT 10SM CLR 02/M01 A3020 RMK AO2 SLP225 T00171011 $
KHYI 131256Z 00000KT 10SM CLR 01/M01 A3019 RMK AO2 SLP225 T00111011 $
KHYI 131156Z AUTO 24004KT 10SM CLR 00/M02 A3018 RMK AO2 SLP220 T00001017 10022 21006 55006 $
KHYI 131056Z AUTO 33006KT 10SM CLR 01/M02 A3018 RMK AO2 SLP216 T00061017 $
KHYI 130956Z AUTO 30004KT 10SM CLR 01/M02 A3019 RMK AO2 SLP220 T00061022 $
KHYI 130856Z AUTO 32006KT 10SM CLR 01/M02 A3020 RMK AO2 SLP223 T00061017 58021 $
KHYI 130756Z AUTO 29005KT 10SM CLR 01/M02 A3022 RMK AO2 SLP231 T00061017 $
KHYI 130656Z AUTO 34006KT 10SM CLR 01/M01 A3024 RMK AO2 SLP236 T00111011 $
KHYI 130556Z AUTO 31005KT 10SM CLR 02/M01 A3026 RMK AO2 SLP244 T00221006 10111 20017 401780017 58008 $
KHYI 130456Z AUTO 30007KT 10SM CLR 03/M01 A3028 RMK AO2 SLP252 T00281006 $
KHYI 130356Z AUTO 31005KT 10SM CLR 04/01 A3028 RMK AO2 SLP252 T00440006 $
KHYI 130256Z AUTO 32005KT 10SM CLR 05/00 A3029 RMK AO2 SLP253 T00500000 51002 $
KHYI 130156Z AUTO 09003KT 10SM CLR 06/00 A3028 RMK AO2 SLP254 T00610000 $
KHYI 130056Z 00000KT 10SM CLR 08/01 A3029 RMK AO2 SLP253 T00780006 $
KHYI 122356Z 01005KT 10SM CLR 11/01 A3028 RMK AO2 SLP252 T01110006 10178 20111 56008 $
KHYI 122256Z 36008KT 10SM CLR 16/01 A3028 RMK AO2 SLP249 T01560006 $